aviador You're here:

EPSC Decoded Metar

SZCZECIN in POLAND
Report Time2018-04-26 01:00:00
UTC Time2018-04-26 01:25:55
Flight Rules vfr VFR
Wind160° at 03 kt
W.Decomp.*RWY 13: 2.7 kt HW 1.4 kt RCW
W.Rank160° ranks 4
Current wind is below 160° avg. (6.7)
Visibility9999 m
Phenomena:N/A
Clouds:Few 029 Hf
CeilingNone
Temp05°C (ISA -10)
Dew Point05°C (100% RH)
AAT2.8°C
QNH1009 hPa
Density Alt-942 ft
Elevation10 ft
Report Wrong Elevation
Raw Report
EPSC 260100Z 16003KT 140V200 9999 FEW029 05/05 Q1009=

Extra information for EPSC:More info

Metar Taf Metar & Taf Last 4 Metars F.Rules Stats Wind Profile Meteogram Temp Stats Airport Information Weather charts Add Link Nearby VenuesMetar ALERT Operation Metar Decoded Social comments